• Join FlightAware (Why Join?)
  • Login
  • US Flag 
03:55AM EDT


 

Airport Tracker/Info


-or-


 

Live Flight TrackerFlight Track Log ✈ N328AJ ✈ 04-Oct-2013 ✈ KTEB - KCMH

Flight Track Log - Related Links

Times and Time Zones

All times are in EDT time to prevent confusion due to time zone crossing. See the N328AJ flight status page for this flight to view local times or setup timezone preferences in your user account.

Time Position Orientation Groundspeed Altitude Reporting Facility
EDT Latitude Longitude Course Direction KTS MPH feet Rate Location/Type
05:38PM 40.8333 -74.1167 252° West 178 205 1,400  Level New York TRACON
05:39PM 40.8167 -74.1833 252° West 194 223 3,200 1,860 Climbing New York TRACON
05:40PM 40.8167 -74.2500 270° West 192 221 5,400 2,040 Climbing New York TRACON
05:41PM 40.8167 -74.3167 270° West 191 220 7,600 2,100 Climbing New York TRACON
05:42PM 40.8167 -74.4000 270° West 194 223 9,700 1,740 Climbing New York TRACON
05:43PM 40.8167 -74.4667 270° West 217 250 11,100 1,200 Climbing New York TRACON
05:44PM 40.8167 -74.5500 270° West 240 276 12,200 1,020 Climbing New York TRACON
05:45PM 40.8117 -74.6753 267° West 237 273 13,500 720 Climbing New York Center
05:46PM 40.8108 -74.7658 269° West 237 273 14,000 240 Climbing New York Center
05:47PM 40.8094 -74.8644 269° West 264 304 14,000  Level New York Center
05:48PM 40.8061 -74.9572 267° West 275 316 14,000 540 Level New York Center
05:49PM 40.8044 -75.0642 269° West 270 311 15,100 1,020 Climbing New York Center
05:50PM 40.7989 -75.1542 265° West 258 297 16,100 960 Climbing New York Center
05:51PM 40.7875 -75.2383 260° West 253 291 17,100 900 Climbing New York Center
05:52PM 40.7764 -75.3144 259° West 240 276 18,000 900 Climbing New York Center
05:53PM 40.7628 -75.3958 258° West 235 270 19,000 900 Climbing New York Center
05:54PM 40.7347 -75.4706 244° Southwest 230 265 19,900 900 Climbing New York Center
05:55PM 40.7089 -75.5428 245° Southwest 230 265 20,900 960 Climbing New York Center
05:56PM 40.6789 -75.6172 242° Southwest 230 265 21,900 960 Climbing New York Center
05:57PM 40.6508 -75.6892 243° Southwest 230 265 22,900 720 Climbing New York Center
05:58PM 40.6247 -75.7639 245° Southwest 230 265 23,400 480 Climbing New York Center
05:59PM 40.5967 -75.8383 244° Southwest 230 265 23,900 240 Climbing New York Center
06:00PM 40.5597 -75.9231 240° Southwest 246 283 24,000  Climbing New York Center
06:01PM 40.5267 -76.0106 244° Southwest 259 298 24,000  Level New York Center
06:02PM 40.4933 -76.1008 244° Southwest 269 310 24,000  Level New York Center
06:03PM 40.4581 -76.1911 243° Southwest 274 315 24,000  Level New York Center
06:04PM 40.4225 -76.2836 243° Southwest 274 315 24,000  Level New York Center
06:05PM 40.3892 -76.3708 243° Southwest 274 315 24,000  Level New York Center
06:06PM 40.3597 -76.4639 247° West 274 315 24,000  Level New York Center
06:07PM 40.3528 -76.5642 265° West 274 315 24,000  Level New York Center
06:08PM 40.3458 -76.6617 265° West 274 315 24,000  Level New York Center
06:09PM 40.3389 -76.7592 265° West 274 315 24,000  Level New York Center
06:10PM 40.3339 -76.8567 266° West 274 315 24,000  Level New York Center
06:11PM 40.3267 -76.9542 264° West 274 315 24,000  Level New York Center
06:12PM 40.3339 -77.0528 276° West 274 315 24,000  Level New York Center
06:13PM 40.3456 -77.1492 279° West 274 315 24,000  Level New York Center
06:14PM 40.3569 -77.2456 279° West 274 315 24,000  Level New York Center
06:15PM 40.3683 -77.3419 279° West 274 315 24,000  Level New York Center
06:17PM 40.3539 -77.4981 263° West 270 311 24,000  Level Cleveland Center
06:18PM 40.3428 -77.5958 262° West 272 313 24,000  Level Cleveland Center
06:19PM 40.3319 -77.6936 262° West 272 313 24,000  Level Cleveland Center
06:20PM 40.3217 -77.7911 262° West 272 313 24,000  Level Cleveland Center
06:21PM 40.3075 -77.9083 261° West 273 314 24,000  Level Cleveland Center
06:22PM 40.2975 -78.0050 262° West 271 312 24,000  Level Cleveland Center
06:23PM 40.2875 -78.1017 262° West 269 310 24,000  Level Cleveland Center
06:24PM 40.2764 -78.1981 261° West 269 310 24,000  Level Cleveland Center
06:25PM 40.2647 -78.2947 261° West 270 311 24,000  Level Cleveland Center
06:26PM 40.2519 -78.4081 262° West 267 307 24,000  Level Cleveland Center
06:27PM 40.2406 -78.5033 261° West 266 306 24,000  Level Cleveland Center
06:28PM 40.2297 -78.5986 262° West 267 307 24,000  Level Cleveland Center
06:29PM 40.2186 -78.6922 261° West 263 303 24,000  Level Cleveland Center
06:30PM 40.2072 -78.7883 261° West 267 307 24,000  Level Cleveland Center
06:31PM 40.1933 -78.9033 261° West 268 308 24,000  Level Cleveland Center
06:32PM 40.1817 -78.9992 261° West 268 308 24,000  Level Cleveland Center
06:33PM 40.1706 -79.0922 261° West 264 304 24,000  Level Cleveland Center
06:34PM 40.1589 -79.1864 261° West 264 304 24,000  Level Cleveland Center
06:35PM 40.1481 -79.2789 261° West 260 299 24,000  Level Cleveland Center
06:37PM 40.1364 -79.3769 261° West 265 305 24,000  Level Cleveland Center
06:38PM 40.1247 -79.4703 261° West 264 304 24,000  Level Cleveland Center
06:39PM 40.1103 -79.5853 261° West 266 306 24,000  Level Cleveland Center
06:40PM 40.0986 -79.6789 261° West 263 303 24,000  Level Cleveland Center
06:41PM 40.0861 -79.7739 260° West 264 304 24,000  Level Cleveland Center
06:42PM 40.0736 -79.8689 260° West 265 305 24,000  Level Cleveland Center
06:43PM 40.0617 -79.9642 261° West 264 304 24,000  Level Cleveland Center
06:44PM 40.0497 -80.0594 261° West 265 305 24,000  Level Cleveland Center
06:45PM 40.0372 -80.1539 260° West 265 305 24,000  Level Cleveland Center
06:46PM 40.0214 -80.2678 260° West 266 306 24,000  Level Cleveland Center
06:47PM 40.0094 -80.3631 261° West 266 306 24,000 -60 Level Cleveland Center
06:48PM 39.9961 -80.4578 260° West 266 306 23,900 -360 Descending Cleveland Center
06:49PM 39.9825 -80.5550 260° West 273 314 23,300 -600 Descending Cleveland Center
06:50PM 39.9689 -80.6567 260° West 285 328 22,700 -600 Descending Cleveland Center
06:51PM 39.9550 -80.7592 260° West 287 330 22,100 -360 Descending Cleveland Center
06:52PM 39.9372 -80.8783 259° West 280 322 22,000 -60 Descending Cleveland Center
06:53PM 39.9242 -80.9750 260° West 274 315 22,000  Level Cleveland Center
06:54PM 39.9114 -81.0647 260° West 274 315 22,000  Level Indianapolis Center
06:55PM 39.8983 -81.1592 260° West 269 310 22,000 -540 Level Indianapolis Center
06:56PM 39.8836 -81.2600 259° West 276 318 20,900 -1,140 Descending Indianapolis Center
06:57PM 39.8675 -81.3700 259° West 296 341 19,700 -1,260 Descending Indianapolis Center
06:58PM 39.8483 -81.5067 260° West 313 360 18,300 -1,200 Descending Indianapolis Center
06:59PM 39.8322 -81.6181 259° West 315 362 17,300 -1,080 Descending Indianapolis Center
07:00PM 39.8164 -81.7250 259° West 307 353 16,100 -1,260 Descending Indianapolis Center
07:01PM 39.8022 -81.8253 260° West 290 334 14,800 -1,320 Descending Indianapolis Center
07:02PM 39.7861 -81.9256 258° West 284 327 13,400 -1,500 Descending Indianapolis Center
07:02PM 39.7828 -81.9472 259° West 281 323 13,200 -1,380 Descending Indianapolis Center
07:03PM 39.7725 -82.0239 260° West 280 322 12,000 -1,440 Descending Indianapolis Center
07:03PM 39.7733 -82.0544 272° West 279 321 11,600 -1,680 Descending Indianapolis Center
07:04PM 39.7747 -82.1581 271° West 291 335 10,100 -900 Descending Indianapolis Center
07:05PM 39.7761 -82.2464 271° West 279 321 9,900 -660 Descending Indianapolis Center
07:06PM 39.7889 -82.3419 280° West 285 328 8,900 -1,020 Descending Indianapolis Center
07:06PM 39.7911 -82.3508 288° West 275 316 8,900 -1,200 Level Indianapolis Center
07:07PM 39.8231 -82.4403 295° West 271 312 7,700 -1,140 Descending Indianapolis Center
07:07PM 39.8189 -82.4303 118° Southeast 268 308 7,800 -1,200 Climbing Indianapolis Center
07:08PM 39.8519 -82.5197 296° West 272 313 6,500 -960 Descending Indianapolis Center
07:09PM 39.8853 -82.6078 296° West 252 290 5,900 -540 Descending Indianapolis Center
07:10PM 39.8836 -82.6014 109° East 262 302 6,000 60 Climbing Indianapolis Center
07:10PM 39.8931 -82.6853 278° West 202 232 6,000  Level Indianapolis Center
07:11PM 39.8944 -82.6775 77° East 215 247 6,000 -900 Level Indianapolis Center
07:11PM 39.9069 -82.7611 281° West 216 249 5,100 -1,020 Descending Indianapolis Center
07:12PM 39.9075 -82.7667 277° West 213 245 5,000 -1,200 Descending Indianapolis Center
07:12PM 39.9350 -82.8419 295° West 237 273 3,900 -900 Descending Indianapolis Center
07:13PM 39.9319 -82.8264 104° East 227 261 4,100 -900 Climbing Indianapolis Center
07:14PM 39.9458 -82.9211 281° West 226 260 2,900 -1,020 Descending Indianapolis Center
07:15PM 39.9664 -82.9669 300° West 191 220 2,100 -720 Descending Indianapolis Center
07:16PM 39.9947 -82.9397 36° Northeast 156 180 1,500 -420 Descending Indianapolis Center
07:17PM 40.0058 -82.8969 71° East 150 173 1,300 -240 Descending Indianapolis Center